• Join FlightAware (Why Join?)
  • Login
  • US Flag 
06:34PM EDT


 

Airport Tracker/Info


-or-


 

Live Flight TrackerFlight Track Log ✈ AMX526 ✈ 13-Jul-2013 ✈ MMMD / MID - MMMX / MEX

Flight Track Log - Related Links

Times and Time Zones

All times are in EDT time to prevent confusion due to time zone crossing. See the AMX526 flight status page for this flight to view local times or setup timezone preferences in your user account.

Time Position Orientation Groundspeed Altitude Reporting Facility
EDT Latitude Longitude Course Direction KTS MPH feet Rate Location/Type
08:59PM 20.8613 -90.2276 262° West  Level Estimated
09:00PM 20.8485 -90.3226 262° West  Level Estimated
09:01PM 20.8356 -90.4175 262° West  Level Estimated
09:02PM 20.8227 -90.5124 262° West  Level Estimated
09:03PM 20.8098 -90.6073 262° West  Level Estimated
09:04PM 20.7968 -90.7022 262° West  Level Estimated
09:05PM 20.7837 -90.7970 262° West  Level Estimated
09:06PM 20.7706 -90.8919 262° West  Level Estimated
09:07PM 20.7574 -90.9867 262° West  Level Estimated
09:08PM 20.7442 -91.0815 262° West  Level Estimated
09:09PM 20.7309 -91.1763 262° West  Level Estimated
09:10PM 20.7176 -91.2711 261° West  Level Estimated
09:11PM 20.7042 -91.3658 261° West  Level Estimated
09:12PM 20.6908 -91.4606 261° West  Level Estimated
09:13PM 20.6773 -91.5553 261° West  Level Estimated
09:14PM 20.6638 -91.6500 261° West  Level Estimated
09:15PM 20.6502 -91.7447 261° West  Level Estimated
09:16PM 20.6366 -91.8393 261° West  Level Estimated
09:17PM 20.6229 -91.9340 261° West  Level Estimated
09:18PM 20.6092 -92.0286 261° West  Level Estimated
09:19PM 20.5954 -92.1233 261° West  Level Estimated
09:20PM 20.5816 -92.2179 261° West  Level Estimated
09:21PM 20.5677 -92.3125 261° West  Level Estimated
09:22PM 20.5537 -92.4070 261° West  Level Estimated
09:23PM 20.5397 -92.5016 261° West  Level Estimated
09:24PM 20.5257 -92.5961 261° West  Level Estimated
09:25PM 20.5116 -92.6907 261° West  Level Estimated
09:26PM 20.4975 -92.7851 261° West  Level Estimated
09:27PM 20.4833 -92.8796 261° West  Level Estimated
09:28PM 20.4690 -92.9741 261° West  Level Estimated
09:29PM 20.4547 -93.0686 261° West  Level Estimated
09:30PM 20.4404 -93.1630 261° West  Level Estimated
09:31PM 20.4260 -93.2574 261° West  Level Estimated
09:32PM 20.4115 -93.3518 261° West  Level Estimated
09:33PM 20.3970 -93.4462 261° West  Level Estimated
09:34PM 20.3825 -93.5405 261° West  Level Estimated
09:35PM 20.3679 -93.6349 261° West  Level Estimated
09:36PM 20.3532 -93.7292 261° West  Level Estimated
09:37PM 20.3385 -93.8235 261° West  Level Estimated
09:38PM 20.3237 -93.9178 261° West  Level Estimated
09:39PM 20.3089 -94.0121 261° West  Level Estimated
09:40PM 20.2941 -94.1063 260° West  Level Estimated
09:41PM 20.2792 -94.2005 260° West  Level Estimated
09:42PM 20.2642 -94.2948 260° West  Level Estimated
09:43PM 20.2492 -94.3890 260° West  Level Estimated
09:44PM 20.2341 -94.4831 260° West  Level Estimated
09:45PM 20.2190 -94.5773 260° West  Level Estimated
09:46PM 20.2039 -94.6714 260° West  Level Estimated
09:47PM 20.1887 -94.7656 260° West  Level Estimated
09:48PM 20.1734 -94.8597 260° West  Level Estimated
09:49PM 20.1581 -94.9538 260° West  Level Estimated
09:50PM 20.1427 -95.0478 260° West  Level Estimated
09:51PM 20.1273 -95.1419 260° West  Level Estimated
09:52PM 20.1119 -95.2359 260° West  Level Estimated
09:53PM 20.0963 -95.3299 260° West  Level Estimated
09:54PM 20.0808 -95.4239 260° West  Level Estimated
09:55PM 20.0652 -95.5179 260° West  Level Estimated
09:56PM 20.0495 -95.6119 260° West  Level Estimated
09:57PM 20.0338 -95.7058 260° West  Level Estimated
09:58PM 20.0180 -95.7997 260° West  Level Estimated
09:59PM 20.0022 -95.8936 260° West  Level Estimated
10:00PM 19.9864 -95.9875 260° West  Level Estimated
10:01PM 19.9705 -96.0814 260° West  Level Estimated
10:02PM 19.9545 -96.1752 260° West  Level Estimated
10:03PM 19.9385 -96.2691 260° West  Level Estimated
10:04PM 19.9225 -96.3629 260° West  Level Estimated
10:05PM 19.9064 -96.4566 260° West  Level Estimated
10:06PM 19.8902 -96.5504 260° West  Level Estimated
10:07PM 19.8740 -96.6442 260° West  Level Estimated
10:08PM 19.8578 -96.7379 260° West  Level Estimated
10:09PM 19.8415 -96.8316 260° West  Level Estimated
10:10PM 19.8251 -96.9253 260° West  Level Estimated
10:11PM 19.8087 -97.0190 259° West  Level Estimated
10:12PM 19.7923 -97.1126 259° West  Level Estimated
10:13PM 19.7758 -97.2063 259° West  Level Estimated
10:14PM 19.7593 -97.2999 259° West  Level Estimated
10:15PM 19.7427 -97.3935 259° West  Level Estimated
10:16PM 19.7260 -97.4870 259° West  Level Estimated
10:17PM 19.7094 -97.5806 259° West  Level Estimated
10:18PM 19.6926 -97.6741 259° West  Level Estimated
10:19PM 19.6758 -97.7677 259° West  Level Estimated
10:20PM 19.6590 -97.8612 259° West  Level Estimated
10:21PM 19.6421 -97.9546 259° West  Level Estimated
10:22PM 19.6252 -98.0481 259° West  Level Estimated
10:23PM 19.6082 -98.1415 259° West  Level Estimated
10:24PM 19.5912 -98.2350 259° West  Level Estimated
10:25PM 19.5741 -98.3284 259° West  Level Estimated
10:26PM 19.5570 -98.4217 259° West  Level Estimated
10:27PM 19.5398 -98.5151 259° West  Level Estimated
10:28PM 19.5226 -98.6084 259° West  Level Estimated
10:29PM 19.5053 -98.7018 259° West  Level Estimated
10:30PM 19.4880 -98.7951 259° West  Level Estimated
10:31PM 19.4707 -98.8883 259° West  Level Estimated
10:32PM 19.4533 -98.9816 259° West  Level Estimated
10:33PM 19.4363 -99.0721 259° West  Level Estimated
10:34PM 19.4363 -99.0721 43° Northeast  Level Estimated
10:35PM 19.4363 -99.0721 43° Northeast  Level Estimated
10:36PM 19.4363 -99.0721 43° Northeast  Level Estimated
10:37PM 19.4363 -99.0721 43° Northeast  Level Estimated
10:38PM 19.4363 -99.0721 43° Northeast  Level Estimated
10:39PM 19.4363 -99.0721 43° Northeast  Level Estimated
10:40PM 19.4363 -99.0721 43° Northeast  Level Estimated
10:41PM 19.4363 -99.0721 43° Northeast  Level Estimated
10:42PM 19.4363 -99.0721 43° Northeast  Level Estimated
10:43PM 19.4363 -99.0721 43° Northeast  Level Estimated
10:44PM 19.4363 -99.0721 43° Northeast  Level Estimated
10:45PM 19.4363 -99.0721 43° Northeast  Level Estimated
10:46PM 19.4363 -99.0721 43° Northeast  Level Estimated
10:47PM 19.4363 -99.0721 43° Northeast  Level Estimated
10:48PM 19.4363 -99.0721 43° Northeast  Level Estimated
10:49PM 19.4363 -99.0721 43° Northeast  Level Estimated